createdAt,value
2022-10-18T00:01:25.062Z,92.00
2022-10-18T00:03:53.840Z,92.00
2022-10-18T00:06:22.666Z,92.00
2022-10-18T00:08:51.505Z,92.00
2022-10-18T00:11:21.786Z,92.00
2022-10-18T00:13:50.493Z,91.90
2022-10-18T00:16:20.109Z,91.90
2022-10-18T00:18:49.372Z,91.80
2022-10-18T00:21:20.879Z,91.80
2022-10-18T00:23:50.902Z,91.80
2022-10-18T00:26:23.987Z,91.80
2022-10-18T00:28:54.393Z,91.70
2022-10-18T00:31:25.580Z,91.80
2022-10-18T00:33:56.040Z,91.70
2022-10-18T00:36:25.629Z,91.80
2022-10-18T00:38:54.508Z,91.80
2022-10-18T00:41:27.622Z,91.80
2022-10-18T00:43:59.241Z,91.90
2022-10-18T00:46:29.764Z,91.90
2022-10-18T00:49:00.957Z,91.90
2022-10-18T00:51:33.846Z,91.90
2022-10-18T00:54:02.718Z,92.00
2022-10-18T00:56:35.217Z,92.00
2022-10-18T00:59:04.630Z,92.10
2022-10-18T01:01:33.298Z,92.10
2022-10-18T01:04:02.215Z,92.10
2022-10-18T01:06:31.352Z,92.10
2022-10-18T01:09:18.245Z,92.10
2022-10-18T01:12:05.920Z,92.10
2022-10-18T01:14:54.418Z,92.10
2022-10-18T01:17:28.918Z,92.20
2022-10-18T01:20:24.529Z,92.20
2022-10-18T01:23:01.676Z,92.20
2022-10-18T01:25:43.478Z,92.20
2022-10-18T01:28:31.054Z,92.20
2022-10-18T01:31:02.499Z,92.20
2022-10-18T01:33:39.182Z,92.20
2022-10-18T01:36:15.123Z,92.20
2022-10-18T01:38:46.327Z,92.30
2022-10-18T01:41:16.217Z,92.40
2022-10-18T01:43:47.721Z,92.40
2022-10-18T01:46:21.618Z,92.40
2022-10-18T01:48:50.626Z,92.50
2022-10-18T01:51:21.848Z,92.50
2022-10-18T01:53:50.667Z,92.50
2022-10-18T01:56:35.500Z,92.50
2022-10-18T01:59:24.019Z,92.50
2022-10-18T02:02:03.972Z,92.60
2022-10-18T02:04:42.478Z,92.70
2022-10-18T02:07:24.772Z,92.70
2022-10-18T02:10:02.563Z,92.80
2022-10-18T02:12:34.523Z,92.90
2022-10-18T02:15:05.772Z,93.00
2022-10-18T02:17:36.258Z,93.00
2022-10-18T02:20:06.906Z,93.10
2022-10-18T02:22:36.953Z,93.10
2022-10-18T02:25:10.491Z,93.10
2022-10-18T02:27:39.736Z,93.20
2022-10-18T02:30:10.011Z,93.30
2022-10-18T02:32:45.408Z,93.30
2022-10-18T02:35:21.372Z,93.40
2022-10-18T02:37:51.758Z,93.40
2022-10-18T02:40:21.086Z,93.50
2022-10-18T02:42:52.094Z,93.50
2022-10-18T02:45:20.891Z,93.50
2022-10-18T02:47:51.186Z,93.60
2022-10-18T02:50:20.211Z,93.60
2022-10-18T02:52:48.931Z,93.70
2022-10-18T02:55:18.083Z,93.70
2022-10-18T02:57:46.958Z,93.70
2022-10-18T03:00:16.698Z,93.80
2022-10-18T03:02:45.502Z,93.80
2022-10-18T03:05:15.882Z,93.80
2022-10-18T03:07:44.699Z,93.80
2022-10-18T03:10:13.556Z,93.90
2022-10-18T03:12:42.388Z,93.90
2022-10-18T03:15:29.626Z,93.90
2022-10-18T03:17:58.530Z,93.90
2022-10-18T03:20:28.838Z,94.00
2022-10-18T03:22:57.691Z,94.10
2022-10-18T03:25:26.470Z,94.10
2022-10-18T03:27:55.183Z,94.10
2022-10-18T03:30:24.098Z,94.20
2022-10-18T03:32:54.412Z,94.20
2022-10-18T03:35:23.540Z,94.20
2022-10-18T03:37:53.781Z,94.20
2022-10-18T03:40:22.696Z,94.30
2022-10-18T03:42:51.477Z,94.30
2022-10-18T03:45:20.203Z,94.30
2022-10-18T03:47:48.997Z,94.30
2022-10-18T03:50:17.833Z,94.30
2022-10-18T03:52:46.488Z,94.30
2022-10-18T03:55:16.603Z,94.30
2022-10-18T03:57:45.228Z,94.40
2022-10-18T04:00:14.782Z,94.40
2022-10-18T04:02:43.647Z,94.40
2022-10-18T04:05:13.103Z,94.40
2022-10-18T04:07:42.122Z,94.40
2022-10-18T04:10:11.068Z,94.40
2022-10-18T04:12:41.295Z,94.40
2022-10-18T04:15:11.455Z,94.40
2022-10-18T04:17:40.386Z,94.40
2022-10-18T04:20:10.035Z,94.30
2022-10-18T04:22:38.811Z,94.30
2022-10-18T04:25:08.202Z,94.40
2022-10-18T04:27:37.644Z,94.30
2022-10-18T04:30:10.045Z,94.30
2022-10-18T04:32:40.636Z,94.20
2022-10-18T04:35:10.194Z,94.20
2022-10-18T04:37:40.103Z,94.10
2022-10-18T04:40:11.540Z,94.00
2022-10-18T04:42:41.305Z,94.00
2022-10-18T04:45:12.472Z,93.90
2022-10-18T04:47:44.671Z,93.80
2022-10-18T04:50:18.051Z,93.80
2022-10-18T04:52:47.092Z,93.80
2022-10-18T04:55:15.784Z,93.70
2022-10-18T04:57:44.531Z,93.70
2022-10-18T05:00:15.870Z,93.70
2022-10-18T05:02:44.631Z,93.60
2022-10-18T05:05:14.241Z,93.50
2022-10-18T05:07:43.427Z,93.50
2022-10-18T05:10:12.216Z,93.50
2022-10-18T05:12:40.959Z,93.50
2022-10-18T05:15:10.634Z,93.40
2022-10-18T05:17:40.691Z,93.30
2022-10-18T05:20:10.778Z,93.30
2022-10-18T05:22:39.501Z,93.20
2022-10-18T05:25:09.554Z,93.20
2022-10-18T05:27:38.451Z,93.10
2022-10-18T05:30:08.003Z,93.00
2022-10-18T05:32:36.745Z,92.90
2022-10-18T05:35:07.972Z,92.80
2022-10-18T05:37:36.870Z,92.80
2022-10-18T05:40:06.169Z,92.70
2022-10-18T05:42:35.032Z,92.70
2022-10-18T05:45:03.677Z,92.70
2022-10-18T05:47:32.532Z,92.70
2022-10-18T05:50:01.432Z,92.60
2022-10-18T05:52:31.883Z,92.60
2022-10-18T05:55:00.883Z,92.50
2022-10-18T05:57:29.924Z,92.50
2022-10-18T05:59:59.065Z,92.50
2022-10-18T06:02:27.802Z,92.50
2022-10-18T06:04:56.607Z,92.40
2022-10-18T06:07:25.556Z,92.30
2022-10-18T06:09:55.679Z,92.20
2022-10-18T06:12:24.455Z,92.20
2022-10-18T06:14:53.351Z,92.20
2022-10-18T06:17:22.039Z,92.10
2022-10-18T06:19:50.885Z,92.10
2022-10-18T06:22:38.223Z,92.00
2022-10-18T06:25:09.440Z,92.00
2022-10-18T06:27:56.714Z,92.00
2022-10-18T06:30:25.549Z,91.90
2022-10-18T06:32:54.364Z,91.90
2022-10-18T06:35:23.209Z,91.80
2022-10-18T06:37:52.135Z,91.90
2022-10-18T06:40:22.365Z,91.80
2022-10-18T06:43:00.142Z,91.70
2022-10-18T06:45:34.965Z,91.70
2022-10-18T06:48:03.779Z,91.70
2022-10-18T06:50:32.599Z,91.70
2022-10-18T06:53:02.738Z,91.60
2022-10-18T06:55:33.782Z,91.40
2022-10-18T06:58:02.930Z,91.30
2022-10-18T07:00:31.710Z,91.40
2022-10-18T07:03:00.410Z,91.40
2022-10-18T07:05:29.293Z,91.40
2022-10-18T07:07:58.083Z,91.30
2022-10-18T07:10:27.380Z,91.30
2022-10-18T07:13:19.693Z,91.20
2022-10-18T07:15:46.985Z,91.20
2022-10-18T07:18:15.872Z,91.10
2022-10-18T07:20:44.634Z,91.10
2022-10-18T07:23:13.357Z,91.10
2022-10-18T07:25:42.117Z,90.90
2022-10-18T07:28:12.262Z,90.90
2022-10-18T07:30:40.997Z,90.80
2022-10-18T07:33:09.862Z,90.80
2022-10-18T07:35:38.472Z,90.70
2022-10-18T07:38:07.425Z,90.60
2022-10-18T07:40:36.126Z,90.50
2022-10-18T07:43:05.099Z,90.30
2022-10-18T07:45:35.559Z,90.00
2022-10-18T07:48:04.460Z,89.50
2022-10-18T07:50:33.123Z,88.80
2022-10-18T07:53:01.833Z,88.40
2022-10-18T07:55:30.617Z,88.00
2022-10-18T07:58:01.356Z,87.40
2022-10-18T08:00:50.098Z,86.70
2022-10-18T08:03:18.837Z,86.20
2022-10-18T08:06:09.256Z,86.30
2022-10-18T08:08:39.475Z,85.50
2022-10-18T08:11:10.323Z,85.50
2022-10-18T08:13:39.273Z,85.20
2022-10-18T08:16:11.468Z,84.80
2022-10-18T08:18:40.405Z,84.50
2022-10-18T08:21:11.404Z,84.30
2022-10-18T08:23:40.808Z,84.10
2022-10-18T08:26:11.723Z,84.10
2022-10-18T08:28:46.028Z,83.90
2022-10-18T08:31:24.195Z,83.40
2022-10-18T08:33:53.047Z,82.90
2022-10-18T08:36:21.715Z,82.80
2022-10-18T08:38:50.856Z,82.60
2022-10-18T08:41:51.784Z,82.10
2022-10-18T08:44:24.175Z,81.10
2022-10-18T08:46:57.635Z,80.90
2022-10-18T08:49:30.757Z,80.60
2022-10-18T08:52:00.249Z,80.40
2022-10-18T08:54:36.511Z,80.40
2022-10-18T08:57:12.590Z,79.90
2022-10-18T08:59:42.965Z,79.10
2022-10-18T09:02:33.460Z,76.50
2022-10-18T09:05:10.844Z,73.30
2022-10-18T09:08:02.397Z,69.80
2022-10-18T09:10:44.996Z,67.40
2022-10-18T09:13:39.267Z,65.40
2022-10-18T09:16:12.401Z,63.40
2022-10-18T09:18:52.991Z,60.90
2022-10-18T09:21:24.987Z,59.80
2022-10-18T09:24:06.278Z,59.10
2022-10-18T09:26:45.039Z,58.10
2022-10-18T09:29:34.479Z,57.00
2022-10-18T09:32:08.928Z,56.20
2022-10-18T09:34:43.371Z,56.30
2022-10-18T09:37:15.134Z,56.30
2022-10-18T09:39:44.423Z,57.00
2022-10-18T09:42:19.660Z,56.90
2022-10-18T09:44:52.869Z,56.90
2022-10-18T09:47:26.185Z,57.00
2022-10-18T09:50:00.466Z,57.60
2022-10-18T09:52:34.477Z,58.00
2022-10-18T09:55:10.327Z,57.60
2022-10-18T09:57:44.257Z,57.00
2022-10-18T10:00:19.780Z,56.90
2022-10-18T10:02:48.707Z,57.00
2022-10-18T10:05:19.248Z,57.70
2022-10-18T10:07:49.786Z,58.20
2022-10-18T10:10:22.327Z,58.50
2022-10-18T10:13:03.462Z,58.80
2022-10-18T10:15:36.970Z,59.20
2022-10-18T10:18:22.198Z,60.00
2022-10-18T10:21:17.350Z,61.00
2022-10-18T10:23:52.638Z,61.60
2022-10-18T10:26:24.692Z,62.30
2022-10-18T10:28:54.174Z,63.00
2022-10-18T10:31:29.954Z,63.60
2022-10-18T10:34:03.932Z,64.10
2022-10-18T10:36:35.582Z,64.60
2022-10-18T10:39:09.087Z,64.90
2022-10-18T10:41:39.476Z,65.50
2022-10-18T10:44:18.249Z,65.40
2022-10-18T10:46:47.966Z,65.20
2022-10-18T10:49:39.704Z,64.80
2022-10-18T10:52:27.436Z,64.80
2022-10-18T10:55:22.999Z,65.70
2022-10-18T10:57:49.494Z,65.90
2022-10-18T11:00:48.444Z,64.90
2022-10-18T11:03:34.723Z,64.40
2022-10-18T11:06:03.756Z,64.20
2022-10-18T11:08:40.161Z,64.30
2022-10-18T11:11:23.035Z,65.00
2022-10-18T11:14:13.756Z,64.30
2022-10-18T11:16:58.185Z,63.90
2022-10-18T11:19:37.468Z,63.90
2022-10-18T11:22:11.355Z,64.20
2022-10-18T11:25:00.187Z,64.60
2022-10-18T11:27:33.489Z,65.20
2022-10-18T11:30:23.024Z,65.40
2022-10-18T11:33:01.332Z,65.30
2022-10-18T11:35:40.778Z,65.50
2022-10-18T11:38:25.710Z,65.90
2022-10-18T11:41:11.808Z,66.50
2022-10-18T11:44:02.189Z,66.60
2022-10-18T11:46:47.119Z,66.80
2022-10-18T11:49:31.893Z,66.80
2022-10-18T11:52:09.793Z,67.00
2022-10-18T11:54:59.043Z,67.20
2022-10-18T11:57:48.079Z,67.40
2022-10-18T12:00:30.275Z,67.60
2022-10-18T12:03:21.641Z,67.80
2022-10-18T12:05:52.932Z,68.00
2022-10-18T12:08:26.913Z,68.30
2022-10-18T12:11:17.974Z,68.50
2022-10-18T12:13:51.470Z,68.80
2022-10-18T12:16:45.432Z,69.20
2022-10-18T12:19:23.496Z,69.20
2022-10-18T12:21:57.857Z,69.30
2022-10-18T12:24:29.994Z,69.40
2022-10-18T12:27:02.309Z,69.60
2022-10-18T12:29:40.362Z,69.70
2022-10-18T12:32:12.128Z,69.80
2022-10-18T12:34:45.219Z,70.10
2022-10-18T12:37:41.089Z,70.10
2022-10-18T12:40:18.856Z,70.10
2022-10-18T12:42:52.585Z,70.30
2022-10-18T12:45:33.372Z,70.30
2022-10-18T12:48:03.995Z,70.30
2022-10-18T12:50:36.240Z,70.30
2022-10-18T12:53:18.597Z,70.60
2022-10-18T12:55:51.717Z,70.60
2022-10-18T12:58:32.686Z,70.70
2022-10-18T13:01:09.601Z,70.90
2022-10-18T13:03:54.735Z,70.90
2022-10-18T13:06:24.890Z,71.00
2022-10-18T13:09:18.202Z,71.30
2022-10-18T13:11:47.057Z,71.10
2022-10-18T13:15:05.822Z,71.30
2022-10-18T13:17:41.443Z,71.20
2022-10-18T13:20:27.073Z,71.30
2022-10-18T13:23:09.286Z,71.30
2022-10-18T13:25:52.581Z,71.10
2022-10-18T13:28:30.385Z,71.00
2022-10-18T13:31:06.079Z,71.10
2022-10-18T13:33:38.977Z,71.10
2022-10-18T13:36:23.074Z,71.20
2022-10-18T13:39:04.978Z,71.40
2022-10-18T13:41:57.523Z,71.50
2022-10-18T13:44:30.663Z,71.40
2022-10-18T13:47:37.038Z,71.60
2022-10-18T13:53:41.496Z,71.20
2022-10-18T13:56:42.194Z,71.40
2022-10-18T14:02:22.483Z,71.30
2022-10-18T14:05:25.994Z,71.50
2022-10-18T14:08:02.551Z,71.60
2022-10-18T14:10:57.235Z,71.60
2022-10-18T14:13:38.042Z,71.80
2022-10-18T14:16:15.628Z,71.80
2022-10-18T14:18:47.251Z,72.00
2022-10-18T14:21:31.105Z,72.10
2022-10-18T14:24:00.844Z,72.20
2022-10-18T14:26:29.995Z,72.20
2022-10-18T14:29:06.718Z,72.30
2022-10-18T14:31:36.647Z,72.40
2022-10-18T14:34:05.609Z,72.40
2022-10-18T14:36:41.678Z,72.50
2022-10-18T14:39:21.209Z,72.60
2022-10-18T14:41:51.849Z,72.70
2022-10-18T14:44:22.893Z,72.80
2022-10-18T14:46:54.748Z,73.00
2022-10-18T14:49:23.659Z,73.00
2022-10-18T14:51:56.241Z,73.10
2022-10-18T14:54:31.893Z,73.10
2022-10-18T14:57:02.135Z,73.20
2022-10-18T14:59:33.785Z,73.30
2022-10-18T15:02:06.124Z,73.40
2022-10-18T15:04:34.868Z,73.50
2022-10-18T15:07:07.481Z,73.70
2022-10-18T15:09:38.420Z,73.80
2022-10-18T15:12:26.026Z,73.80
2022-10-18T15:14:55.844Z,74.00
2022-10-18T15:17:28.113Z,74.10
2022-10-18T15:20:01.857Z,74.30
2022-10-18T15:22:35.929Z,74.40
2022-10-18T15:25:28.068Z,74.40
2022-10-18T15:28:01.782Z,74.60
2022-10-18T15:30:38.190Z,74.70
2022-10-18T15:33:10.297Z,74.90
2022-10-18T15:35:41.928Z,75.00
2022-10-18T15:38:19.290Z,75.10
2022-10-18T15:41:41.250Z,75.10
2022-10-18T15:44:20.788Z,75.10
2022-10-18T15:46:50.912Z,75.30
2022-10-18T15:49:56.828Z,75.40
2022-10-18T15:52:40.962Z,75.50
2022-10-18T15:55:49.487Z,75.50
2022-10-18T15:58:22.619Z,75.50
2022-10-18T16:00:53.134Z,75.70
2022-10-18T16:03:24.224Z,75.80
2022-10-18T16:05:57.242Z,75.90
2022-10-18T16:08:28.923Z,76.00
2022-10-18T16:10:59.089Z,76.10
2022-10-18T16:13:29.447Z,76.20
2022-10-18T16:15:59.887Z,76.30
2022-10-18T16:18:29.184Z,76.30
2022-10-18T16:20:57.998Z,76.50
2022-10-18T16:23:29.477Z,76.50
2022-10-18T16:25:58.389Z,76.60
2022-10-18T16:28:31.999Z,76.70
2022-10-18T16:31:04.135Z,76.80
2022-10-18T16:33:33.099Z,76.90
2022-10-18T16:36:01.930Z,77.00
2022-10-18T16:38:34.290Z,77.20
2022-10-18T16:41:04.908Z,77.20
2022-10-18T16:43:36.193Z,77.30
2022-10-18T16:46:05.801Z,77.30
2022-10-18T16:48:35.239Z,77.20
2022-10-18T16:51:04.230Z,77.30
2022-10-18T16:53:32.992Z,77.20
2022-10-18T16:56:03.755Z,77.20
2022-10-18T16:58:34.672Z,77.20
2022-10-18T17:01:06.669Z,77.30
2022-10-18T17:03:37.832Z,78.10
2022-10-18T17:06:06.688Z,77.50
2022-10-18T17:08:35.499Z,77.50
2022-10-18T17:11:04.327Z,77.60
2022-10-18T17:13:34.505Z,77.70
2022-10-18T17:16:04.052Z,77.70
2022-10-18T17:18:33.126Z,77.80
2022-10-18T17:21:03.424Z,77.80
2022-10-18T17:23:32.498Z,77.80
2022-10-18T17:26:05.387Z,77.90
2022-10-18T17:28:39.438Z,77.80
2022-10-18T17:31:08.829Z,77.80
2022-10-18T17:33:37.643Z,77.90
2022-10-18T17:36:06.786Z,77.90
2022-10-18T17:38:35.473Z,77.90
2022-10-18T17:41:08.334Z,78.00
2022-10-18T17:46:14.711Z,78.10
2022-10-18T17:48:43.929Z,78.20
2022-10-18T17:51:14.505Z,78.30
2022-10-18T17:53:43.977Z,78.40
2022-10-18T17:56:13.604Z,78.40
2022-10-18T17:58:44.692Z,78.60
2022-10-18T18:01:15.354Z,78.60
2022-10-18T18:03:44.826Z,78.70
2022-10-18T18:06:15.605Z,78.70
2022-10-18T18:08:44.595Z,79.10
2022-10-18T18:11:13.642Z,78.80
2022-10-18T18:13:43.778Z,78.90
2022-10-18T18:16:14.801Z,78.90
2022-10-18T18:18:44.364Z,78.90
2022-10-18T18:21:13.866Z,79.00
2022-10-18T18:23:42.851Z,79.10
2022-10-18T18:26:11.829Z,79.30
2022-10-18T18:28:40.888Z,79.30
2022-10-18T18:31:13.267Z,79.40
2022-10-18T18:33:42.621Z,79.40
2022-10-18T18:36:11.730Z,79.50
2022-10-18T18:38:42.896Z,79.50
2022-10-18T18:41:14.205Z,79.60
2022-10-18T18:43:44.761Z,79.80
2022-10-18T18:46:15.028Z,79.90
2022-10-18T18:48:43.830Z,80.00
2022-10-18T18:51:18.816Z,80.10
2022-10-18T18:53:49.059Z,80.20
2022-10-18T18:59:09.234Z,80.50
2022-10-18T19:01:39.763Z,80.40
2022-10-18T19:04:11.284Z,80.50
2022-10-18T19:06:42.046Z,80.60
2022-10-18T19:09:19.187Z,80.80
2022-10-18T19:11:49.408Z,80.90
2022-10-18T19:14:18.359Z,81.00
2022-10-18T19:16:50.467Z,81.10
2022-10-18T19:19:21.045Z,81.20
2022-10-18T19:21:52.778Z,81.40
2022-10-18T19:24:22.099Z,81.50
2022-10-18T19:26:52.392Z,81.70
2022-10-18T19:29:23.242Z,81.80
2022-10-18T19:31:54.966Z,81.80
2022-10-18T19:34:25.144Z,81.90
2022-10-18T19:36:54.124Z,81.90
2022-10-18T19:39:24.916Z,82.00
2022-10-18T19:41:56.435Z,82.10
2022-10-18T19:44:27.690Z,82.20
2022-10-18T19:46:58.511Z,82.20
2022-10-18T19:49:28.921Z,82.40
2022-10-18T19:51:58.570Z,82.50
2022-10-18T19:54:27.557Z,82.50
2022-10-18T19:56:56.826Z,82.50
2022-10-18T19:59:25.699Z,82.50
2022-10-18T20:01:54.596Z,82.60
2022-10-18T20:04:24.924Z,82.60
2022-10-18T20:06:53.743Z,82.80
2022-10-18T20:09:22.885Z,82.90
2022-10-18T20:11:51.874Z,82.80
2022-10-18T20:14:21.316Z,82.80
2022-10-18T20:16:50.667Z,82.80
2022-10-18T20:19:19.707Z,82.80
2022-10-18T20:21:49.915Z,83.00
2022-10-18T20:24:19.255Z,83.10
2022-10-18T20:26:48.118Z,83.20
2022-10-18T20:29:17.049Z,83.20
2022-10-18T20:31:46.017Z,83.10
2022-10-18T20:34:14.846Z,83.30
2022-10-18T20:36:44.103Z,83.50
2022-10-18T20:39:14.263Z,83.60
2022-10-18T20:41:43.911Z,83.70
2022-10-18T20:44:16.327Z,83.80
2022-10-18T20:46:45.872Z,84.20
2022-10-18T20:49:17.205Z,84.40
2022-10-18T20:51:46.579Z,84.60
2022-10-18T20:54:16.840Z,84.80
2022-10-18T20:56:45.801Z,85.10
2022-10-18T20:59:14.928Z,85.20
2022-10-18T21:01:44.039Z,85.40
2022-10-18T21:04:12.958Z,85.70
2022-10-18T21:06:44.241Z,85.90
2022-10-18T21:09:16.608Z,86.00
2022-10-18T21:11:48.229Z,86.00
2022-10-18T21:14:20.043Z,86.40
2022-10-18T21:16:49.817Z,86.50
2022-10-18T21:19:21.528Z,86.60
2022-10-18T21:21:52.098Z,86.70
2022-10-18T21:24:23.887Z,86.90
2022-10-18T21:26:54.803Z,87.00
2022-10-18T21:29:25.207Z,87.20
2022-10-18T21:32:12.374Z,87.30
2022-10-18T21:34:41.470Z,87.40
2022-10-18T21:37:10.246Z,87.50
2022-10-18T21:39:59.048Z,87.50
2022-10-18T21:42:27.887Z,87.30
2022-10-18T21:44:56.678Z,87.40
2022-10-18T21:47:25.453Z,87.40
2022-10-18T21:49:54.330Z,87.60
2022-10-18T21:52:23.071Z,87.70
2022-10-18T21:54:51.803Z,87.70
2022-10-18T21:57:22.185Z,87.90
2022-10-18T21:59:51.187Z,88.00
2022-10-18T22:02:20.042Z,88.00
2022-10-18T22:04:50.147Z,88.10
2022-10-18T22:07:18.970Z,88.20
2022-10-18T22:09:47.642Z,88.20
2022-10-18T22:12:16.517Z,88.10
2022-10-18T22:14:46.926Z,88.20
2022-10-18T22:17:15.688Z,88.40
2022-10-18T22:19:44.750Z,88.60
2022-10-18T22:22:13.477Z,88.80
2022-10-18T22:24:42.212Z,88.70
2022-10-18T22:27:11.205Z,88.90
2022-10-18T22:29:39.982Z,89.00
2022-10-18T22:32:10.092Z,89.00
2022-10-18T22:34:38.934Z,89.20
2022-10-18T22:37:07.810Z,89.20
2022-10-18T22:39:42.520Z,89.20
2022-10-18T22:42:11.304Z,89.30
2022-10-18T22:44:40.166Z,89.30
2022-10-18T22:47:10.308Z,89.30
2022-10-18T22:49:39.116Z,89.30
2022-10-18T22:52:07.845Z,89.40
2022-10-18T22:54:36.555Z,89.50
2022-10-18T22:57:06.103Z,89.60
2022-10-18T22:59:34.919Z,89.80
2022-10-18T23:02:03.646Z,89.90
2022-10-18T23:04:34.245Z,89.90
2022-10-18T23:07:03.312Z,90.00
2022-10-18T23:09:32.112Z,90.00
2022-10-18T23:12:01.069Z,90.10
2022-10-18T23:14:29.863Z,90.10
2022-10-18T23:16:59.050Z,90.20
2022-10-18T23:19:48.039Z,90.30
2022-10-18T23:22:21.472Z,90.30
2022-10-18T23:24:50.397Z,90.30
2022-10-18T23:27:19.026Z,90.40
2022-10-18T23:29:47.810Z,90.50
2022-10-18T23:32:16.555Z,90.50
2022-10-18T23:34:45.348Z,90.60
2022-10-18T23:37:15.702Z,90.70
2022-10-18T23:39:44.613Z,90.80
2022-10-18T23:42:13.432Z,90.90
2022-10-18T23:44:42.194Z,90.90
2022-10-18T23:47:11.107Z,91.00
2022-10-18T23:49:39.872Z,91.00
2022-10-18T23:52:08.862Z,91.10
2022-10-18T23:54:39.084Z,91.10
2022-10-18T23:57:08.007Z,91.20
2022-10-18T23:59:36.818Z,91.30
